createdAt,value
2018-07-30T00:00:31.836Z,26.10
2018-07-30T00:03:01.253Z,26.00
2018-07-30T00:05:32.060Z,26.00
2018-07-30T00:08:02.346Z,25.90
2018-07-30T00:10:32.637Z,25.90
2018-07-30T00:13:03.538Z,25.80
2018-07-30T00:15:38.721Z,25.80
2018-07-30T00:18:08.286Z,25.80
2018-07-30T00:20:43.748Z,25.80
2018-07-30T00:25:45.204Z,25.90
2018-07-30T00:28:14.616Z,26.00
2018-07-30T00:30:48.777Z,25.90
2018-07-30T00:33:18.419Z,25.80
2018-07-30T00:38:34.139Z,25.50
2018-07-30T00:41:05.981Z,25.30
2018-07-30T00:43:58.836Z,25.20
2018-07-30T00:46:41.270Z,25.10
2018-07-30T00:49:10.779Z,24.90
2018-07-30T00:51:40.669Z,24.80
2018-07-30T00:55:39.067Z,24.80
2018-07-30T00:58:08.140Z,24.80
2018-07-30T01:03:07.091Z,24.50
2018-07-30T01:05:40.979Z,24.40
2018-07-30T01:08:21.288Z,24.30
2018-07-30T01:10:54.698Z,24.30
2018-07-30T01:13:28.518Z,24.20
2018-07-30T01:21:19.597Z,24.00
2018-07-30T01:23:48.619Z,23.90
2018-07-30T01:26:22.810Z,23.90
2018-07-30T01:28:56.105Z,23.80
2018-07-30T01:31:25.144Z,23.70
2018-07-30T01:33:54.950Z,23.70
2018-07-30T01:36:23.973Z,23.60
2018-07-30T01:38:53.005Z,23.60
2018-07-30T01:41:22.274Z,23.50
2018-07-30T01:43:51.816Z,23.50
2018-07-30T01:46:20.870Z,23.40
2018-07-30T01:48:49.828Z,23.40
2018-07-30T01:51:19.063Z,23.40
2018-07-30T01:53:48.126Z,23.40
2018-07-30T01:56:17.123Z,23.30
2018-07-30T02:03:44.621Z,23.20
2018-07-30T02:06:14.987Z,23.20
2018-07-30T02:08:44.106Z,23.10
2018-07-30T02:11:13.867Z,23.20
2018-07-30T02:13:45.045Z,23.10
2018-07-30T02:16:14.378Z,23.10
2018-07-30T02:18:43.375Z,23.10
2018-07-30T02:21:12.387Z,23.00
2018-07-30T02:26:32.665Z,22.90
2018-07-30T02:29:17.997Z,22.90
2018-07-30T02:31:47.782Z,22.80
2018-07-30T02:36:45.491Z,22.70
2018-07-30T02:39:15.209Z,22.70
2018-07-30T02:41:44.509Z,22.70
2018-07-30T02:44:16.000Z,22.60
2018-07-30T02:46:44.994Z,22.60
2018-07-30T02:49:13.951Z,22.60
2018-07-30T02:51:50.786Z,22.60
2018-07-30T02:54:20.037Z,22.50
2018-07-30T02:56:49.269Z,22.40
2018-07-30T02:59:19.729Z,22.40
2018-07-30T03:01:48.783Z,22.50
2018-07-30T03:04:18.695Z,22.40
2018-07-30T03:06:48.258Z,22.50
2018-07-30T03:09:17.218Z,22.40
2018-07-30T03:11:46.392Z,22.50
2018-07-30T03:14:15.531Z,22.50
2018-07-30T03:16:45.322Z,22.40
2018-07-30T03:19:14.317Z,22.40
2018-07-30T03:21:43.339Z,22.40
2018-07-30T03:24:12.590Z,22.40
2018-07-30T03:26:41.639Z,22.30
2018-07-30T03:29:10.623Z,22.20
2018-07-30T03:31:39.571Z,22.20
2018-07-30T03:34:08.595Z,22.10
2018-07-30T03:39:09.571Z,22.00
2018-07-30T03:41:38.882Z,21.90
2018-07-30T03:44:08.178Z,21.80
2018-07-30T03:46:37.252Z,21.90
2018-07-30T03:49:07.040Z,21.90
2018-07-30T03:51:36.324Z,21.80
2018-07-30T03:54:05.292Z,21.80
2018-07-30T03:56:34.322Z,21.80
2018-07-30T03:59:03.407Z,21.70
2018-07-30T04:01:32.672Z,21.60
2018-07-30T04:04:03.445Z,21.60
2018-07-30T04:06:33.189Z,21.60
2018-07-30T04:09:02.340Z,21.60
2018-07-30T04:11:31.256Z,21.60
2018-07-30T04:14:00.624Z,21.60
2018-07-30T04:16:29.636Z,21.60
2018-07-30T04:18:59.492Z,21.60
2018-07-30T04:21:29.572Z,21.60
2018-07-30T04:23:59.119Z,21.70
2018-07-30T04:26:28.793Z,21.70
2018-07-30T04:28:57.966Z,21.80
2018-07-30T04:31:27.325Z,21.70
2018-07-30T04:33:56.702Z,21.80
2018-07-30T04:36:27.596Z,21.80
2018-07-30T04:39:02.000Z,21.80
2018-07-30T04:41:32.082Z,21.70
2018-07-30T04:44:03.629Z,21.70
2018-07-30T04:46:33.932Z,21.80
2018-07-30T04:49:03.248Z,21.70
2018-07-30T04:51:35.264Z,21.70
2018-07-30T04:54:08.563Z,21.60
2018-07-30T04:56:38.988Z,21.70
2018-07-30T04:59:10.701Z,21.70
2018-07-30T05:01:40.813Z,21.70
2018-07-30T05:04:16.056Z,21.70
2018-07-30T05:06:45.094Z,21.70
2018-07-30T05:09:14.104Z,21.70
2018-07-30T05:11:44.204Z,21.80
2018-07-30T05:16:42.841Z,21.80
2018-07-30T05:19:12.050Z,21.80
2018-07-30T05:21:41.225Z,21.80
2018-07-30T05:24:10.703Z,21.80
2018-07-30T05:29:35.766Z,21.70
2018-07-30T05:32:06.596Z,21.70
2018-07-30T05:34:36.220Z,21.80
2018-07-30T05:37:07.300Z,21.90
2018-07-30T05:39:38.552Z,21.90
2018-07-30T05:42:07.590Z,22.00
2018-07-30T05:44:36.568Z,22.10
2018-07-30T05:47:06.265Z,22.10
2018-07-30T05:49:36.869Z,22.20
2018-07-30T05:52:06.256Z,22.30
2018-07-30T05:54:35.437Z,22.30
2018-07-30T05:57:04.400Z,22.30
2018-07-30T05:59:35.927Z,22.40
2018-07-30T06:02:15.514Z,22.40
2018-07-30T06:04:50.687Z,22.50
2018-07-30T06:07:21.715Z,22.60
2018-07-30T06:10:05.487Z,22.70
2018-07-30T06:12:37.599Z,22.90
2018-07-30T06:15:13.421Z,23.50
2018-07-30T06:18:00.127Z,24.40
2018-07-30T06:20:30.779Z,25.70
2018-07-30T06:23:01.750Z,26.80
2018-07-30T06:25:33.007Z,27.90
2018-07-30T06:28:02.648Z,29.00
2018-07-30T06:30:32.279Z,29.00
2018-07-30T06:33:03.517Z,28.70
2018-07-30T06:35:33.737Z,28.90
2018-07-30T06:38:11.330Z,29.20
2018-07-30T06:40:40.356Z,29.70
2018-07-30T06:43:11.160Z,29.70
2018-07-30T06:45:47.790Z,29.00
2018-07-30T06:48:18.609Z,28.20
2018-07-30T06:50:58.734Z,28.10
2018-07-30T06:53:33.051Z,28.30
2018-07-30T06:56:03.592Z,28.00
2018-07-30T06:58:33.292Z,28.20
2018-07-30T07:01:05.157Z,28.30
2018-07-30T07:03:35.566Z,28.20
2018-07-30T07:06:05.174Z,28.00
2018-07-30T07:08:35.701Z,27.80
2018-07-30T07:13:35.236Z,28.50
2018-07-30T07:16:05.138Z,29.20
2018-07-30T07:18:34.098Z,29.50
2018-07-30T07:21:06.108Z,29.60
2018-07-30T07:23:35.494Z,30.20
2018-07-30T07:26:05.189Z,30.10
2018-07-30T07:28:40.523Z,30.30
2018-07-30T07:31:09.708Z,30.90
2018-07-30T07:33:39.142Z,31.40
2018-07-30T07:36:08.999Z,31.60
2018-07-30T07:38:39.255Z,31.60
2018-07-30T07:41:11.092Z,32.50
2018-07-30T07:43:44.898Z,34.10
2018-07-30T07:46:13.916Z,34.30
2018-07-30T07:48:44.728Z,33.50
2018-07-30T07:51:15.096Z,32.10
2018-07-30T07:53:45.270Z,31.20
2018-07-30T07:56:23.992Z,30.50
2018-07-30T08:01:24.311Z,30.60
2018-07-30T08:03:54.674Z,30.90
2018-07-30T08:06:34.596Z,31.20
2018-07-30T08:09:04.751Z,31.10
2018-07-30T08:11:35.800Z,30.40
2018-07-30T08:14:06.346Z,30.60
2018-07-30T08:16:35.833Z,31.20
2018-07-30T08:19:05.319Z,31.30
2018-07-30T08:21:34.911Z,31.20
2018-07-30T08:24:04.348Z,31.50
2018-07-30T08:26:34.252Z,31.60
2018-07-30T08:29:04.135Z,31.80
2018-07-30T08:31:33.961Z,31.60
2018-07-30T08:34:06.044Z,31.50
2018-07-30T08:36:35.692Z,31.00
2018-07-30T08:39:07.742Z,31.10
2018-07-30T08:41:37.472Z,31.20
2018-07-30T08:44:06.440Z,31.90
2018-07-30T08:46:35.952Z,32.60
2018-07-30T08:49:05.460Z,32.10
2018-07-30T08:51:35.085Z,31.80
2018-07-30T08:56:42.513Z,32.00
2018-07-30T08:59:13.645Z,31.60
2018-07-30T09:01:42.797Z,31.70
2018-07-30T09:04:12.585Z,31.90
2018-07-30T09:06:42.723Z,32.90
2018-07-30T09:09:12.384Z,33.50
2018-07-30T09:11:44.333Z,33.90
2018-07-30T09:14:13.706Z,34.30
2018-07-30T09:16:43.170Z,34.30
2018-07-30T09:19:13.431Z,36.20
2018-07-30T09:21:43.149Z,38.00
2018-07-30T09:24:12.142Z,39.30
2018-07-30T09:26:41.104Z,39.20
2018-07-30T09:29:10.540Z,38.60
2018-07-30T09:31:39.792Z,38.10
2018-07-30T09:34:09.002Z,38.70
2018-07-30T09:36:40.334Z,39.00
2018-07-30T09:39:11.226Z,39.00
2018-07-30T09:41:40.990Z,37.80
2018-07-30T09:44:10.377Z,37.10
2018-07-30T09:46:39.607Z,36.20
2018-07-30T09:49:09.454Z,35.80
2018-07-30T09:51:41.469Z,35.30
2018-07-30T09:54:11.183Z,36.00
2018-07-30T09:59:10.450Z,38.20
2018-07-30T10:01:40.372Z,38.60
2018-07-30T10:04:09.651Z,39.30
2018-07-30T10:06:41.677Z,39.10
2018-07-30T10:09:12.344Z,39.70
2018-07-30T10:11:42.442Z,39.40
2018-07-30T10:14:17.002Z,39.80
2018-07-30T10:16:47.834Z,40.40
2018-07-30T10:19:27.659Z,40.90
2018-07-30T10:22:08.315Z,39.60
2018-07-30T10:24:37.697Z,39.10
2018-07-30T10:27:08.247Z,38.80
2018-07-30T10:29:41.771Z,38.80
2018-07-30T10:32:11.217Z,39.70
2018-07-30T10:34:43.496Z,39.70
2018-07-30T10:37:15.518Z,39.40
2018-07-30T10:39:48.649Z,39.90
2018-07-30T10:42:20.044Z,39.80
2018-07-30T10:44:50.280Z,40.60
2018-07-30T10:47:23.500Z,40.60
2018-07-30T10:49:53.322Z,41.60
2018-07-30T10:52:23.250Z,42.40
2018-07-30T10:54:52.436Z,41.90
2018-07-30T10:57:22.711Z,41.10
2018-07-30T10:59:54.331Z,40.80
2018-07-30T11:02:25.363Z,40.50
2018-07-30T11:04:55.030Z,41.00
2018-07-30T11:07:29.800Z,41.00
2018-07-30T11:12:31.762Z,42.20
2018-07-30T11:15:02.105Z,42.70
2018-07-30T11:17:31.781Z,42.90
2018-07-30T11:20:03.321Z,42.20
2018-07-30T11:22:36.618Z,42.30
2018-07-30T11:25:06.945Z,42.50
2018-07-30T11:27:40.359Z,43.30
2018-07-30T11:30:14.636Z,44.00
2018-07-30T11:32:44.840Z,43.80
2018-07-30T11:35:14.715Z,43.10
2018-07-30T11:37:43.937Z,42.20
2018-07-30T11:40:13.835Z,42.70
2018-07-30T11:42:46.872Z,42.20
2018-07-30T11:45:16.610Z,42.30
2018-07-30T11:47:49.757Z,42.20
2018-07-30T11:50:19.176Z,41.50
2018-07-30T11:52:48.721Z,41.10
2018-07-30T11:55:25.083Z,40.60
2018-07-30T11:57:54.722Z,41.90
2018-07-30T12:00:25.101Z,43.00
2018-07-30T12:02:54.474Z,43.40
2018-07-30T12:05:27.216Z,42.80
2018-07-30T12:07:59.588Z,41.00
2018-07-30T12:10:31.812Z,39.40
2018-07-30T12:13:01.711Z,40.00
2018-07-30T12:15:31.558Z,39.40
2018-07-30T12:18:01.345Z,38.90
2018-07-30T12:20:30.604Z,37.90
2018-07-30T12:23:00.433Z,37.60
2018-07-30T12:25:30.170Z,37.70
2018-07-30T12:27:59.410Z,38.40
2018-07-30T12:30:29.101Z,38.60
2018-07-30T12:35:27.659Z,38.50
2018-07-30T12:37:57.837Z,38.80
2018-07-30T12:43:24.648Z,39.00
2018-07-30T12:45:57.049Z,39.00
2018-07-30T12:48:29.584Z,38.40
2018-07-30T12:50:58.807Z,37.90
2018-07-30T12:53:31.297Z,37.80
2018-07-30T12:56:08.890Z,37.90
2018-07-30T12:58:39.074Z,38.30
2018-07-30T13:01:11.406Z,38.70
2018-07-30T13:03:41.899Z,39.20
2018-07-30T13:08:45.773Z,38.90
2018-07-30T13:11:19.539Z,38.80
2018-07-30T13:13:48.836Z,39.30
2018-07-30T13:16:19.358Z,40.40
2018-07-30T13:18:53.014Z,41.00
2018-07-30T13:21:24.332Z,41.80
2018-07-30T13:23:54.405Z,41.90
2018-07-30T13:26:25.044Z,40.00
2018-07-30T13:28:57.573Z,38.90
2018-07-30T13:31:27.701Z,38.80
2018-07-30T13:33:57.214Z,38.60
2018-07-30T13:36:26.405Z,38.70
2018-07-30T13:38:58.513Z,38.70
2018-07-30T13:44:05.232Z,38.80
2018-07-30T13:46:36.936Z,38.70
2018-07-30T13:49:08.680Z,38.20
2018-07-30T13:51:59.160Z,37.00
2018-07-30T14:02:48.800Z,35.50
2018-07-30T14:05:20.671Z,35.40
2018-07-30T14:07:57.933Z,35.30
2018-07-30T14:10:39.415Z,35.30
2018-07-30T14:13:09.337Z,35.60
2018-07-30T14:15:39.387Z,35.80
2018-07-30T14:18:14.305Z,35.70
2018-07-30T14:20:45.792Z,35.60
2018-07-30T14:23:15.187Z,35.50
2018-07-30T14:25:44.831Z,35.40
2018-07-30T14:28:15.075Z,35.60
2018-07-30T14:30:44.537Z,35.60
2018-07-30T14:33:15.245Z,35.60
2018-07-30T14:35:44.842Z,35.50
2018-07-30T14:38:15.264Z,35.60
2018-07-30T14:40:48.961Z,35.70
2018-07-30T14:43:19.279Z,35.60
2018-07-30T14:46:00.108Z,35.40
2018-07-30T14:48:39.584Z,35.10
2018-07-30T14:51:11.208Z,35.20
2018-07-30T14:53:40.527Z,35.20
2018-07-30T14:56:13.012Z,35.30
2018-07-30T14:58:42.798Z,35.30
2018-07-30T15:01:14.528Z,35.50
2018-07-30T15:03:49.609Z,35.20
2018-07-30T15:06:19.266Z,35.50
2018-07-30T15:08:51.634Z,35.40
2018-07-30T15:11:23.593Z,35.30
2018-07-30T15:13:53.759Z,35.30
2018-07-30T15:16:32.072Z,35.10
2018-07-30T15:19:10.103Z,35.00
2018-07-30T15:21:40.257Z,35.00
2018-07-30T15:24:09.359Z,35.00
2018-07-30T15:26:39.212Z,34.90
2018-07-30T15:29:09.383Z,34.80
2018-07-30T15:31:39.505Z,34.70
2018-07-30T15:34:13.838Z,34.60
2018-07-30T15:36:43.790Z,34.60
2018-07-30T15:39:13.602Z,34.90
2018-07-30T15:41:44.028Z,35.10
2018-07-30T15:44:13.424Z,35.20
2018-07-30T15:46:43.792Z,35.40
2018-07-30T15:49:18.770Z,35.40
2018-07-30T15:51:49.290Z,35.30
2018-07-30T15:54:30.228Z,35.10
2018-07-30T15:57:02.604Z,34.90
2018-07-30T15:59:44.354Z,34.90
2018-07-30T16:02:29.870Z,34.90
2018-07-30T16:07:34.915Z,34.70
2018-07-30T16:10:07.320Z,34.70
2018-07-30T16:12:38.347Z,34.70
2018-07-30T16:15:08.975Z,34.70
2018-07-30T16:17:40.249Z,34.80
2018-07-30T16:20:13.177Z,34.80
2018-07-30T16:22:52.668Z,34.80
2018-07-30T16:25:29.730Z,34.80
2018-07-30T16:28:01.076Z,34.70
2018-07-30T16:30:32.265Z,34.60
2018-07-30T16:33:01.601Z,34.60
2018-07-30T16:35:32.537Z,34.60
2018-07-30T16:38:12.416Z,34.60
2018-07-30T16:40:51.021Z,34.60
2018-07-30T16:43:21.546Z,34.50
2018-07-30T16:45:53.210Z,34.30
2018-07-30T16:48:24.523Z,34.20
2018-07-30T16:50:56.787Z,34.20
2018-07-30T16:53:29.668Z,34.10
2018-07-30T16:56:08.120Z,34.20
2018-07-30T16:58:47.752Z,34.10
2018-07-30T17:01:22.469Z,34.10
2018-07-30T17:03:58.620Z,34.10
2018-07-30T17:09:14.101Z,33.90
2018-07-30T17:14:24.000Z,34.00
2018-07-30T17:19:44.392Z,33.80
2018-07-30T17:27:19.236Z,33.70
2018-07-30T17:29:51.846Z,33.50
2018-07-30T17:32:21.090Z,33.50
2018-07-30T17:34:53.724Z,33.40
2018-07-30T17:37:24.169Z,33.30
2018-07-30T17:39:53.763Z,33.30
2018-07-30T17:42:24.456Z,33.30
2018-07-30T17:44:57.281Z,33.20
2018-07-30T17:47:29.665Z,33.10
2018-07-30T17:50:02.834Z,33.10
2018-07-30T17:52:33.549Z,33.00
2018-07-30T17:55:03.698Z,33.00
2018-07-30T17:57:33.731Z,32.90
2018-07-30T18:00:03.796Z,32.90
2018-07-30T18:02:38.798Z,32.80
2018-07-30T18:05:09.768Z,32.80
2018-07-30T18:07:40.473Z,32.70
2018-07-30T18:10:10.360Z,32.60
2018-07-30T18:12:50.366Z,32.60
2018-07-30T18:15:20.333Z,32.60
2018-07-30T18:17:50.114Z,32.60
2018-07-30T18:20:20.949Z,32.50
2018-07-30T18:22:51.237Z,32.40
2018-07-30T18:25:22.102Z,32.40
2018-07-30T18:27:53.440Z,32.30
2018-07-30T18:30:23.857Z,32.30
2018-07-30T18:32:57.828Z,32.20
2018-07-30T18:35:28.712Z,32.20
2018-07-30T18:38:00.765Z,32.10
2018-07-30T18:40:35.596Z,32.00
2018-07-30T18:43:06.709Z,32.00
2018-07-30T18:45:40.449Z,32.00
2018-07-30T18:48:13.260Z,31.90
2018-07-30T18:50:49.702Z,31.90
2018-07-30T18:53:43.681Z,31.80
2018-07-30T18:56:32.124Z,31.80
2018-07-30T18:59:02.101Z,31.70
2018-07-30T19:01:35.810Z,31.70
2018-07-30T19:04:23.545Z,31.50
2018-07-30T19:09:49.220Z,31.50
2018-07-30T19:12:35.802Z,31.50
2018-07-30T19:15:19.097Z,31.40
2018-07-30T19:17:50.101Z,31.50
2018-07-30T19:20:22.968Z,31.50
2018-07-30T19:22:54.419Z,31.50
2018-07-30T19:25:25.026Z,31.50
2018-07-30T19:27:57.421Z,31.50
2018-07-30T19:30:29.185Z,31.50
2018-07-30T19:33:00.231Z,31.60
2018-07-30T19:35:32.348Z,31.50
2018-07-30T19:38:02.060Z,31.50
2018-07-30T19:40:34.243Z,31.50
2018-07-30T19:43:06.888Z,31.50
2018-07-30T19:45:47.441Z,31.40
2018-07-30T19:48:23.593Z,31.40
2018-07-30T19:50:59.184Z,31.40
2018-07-30T19:53:32.794Z,31.40
2018-07-30T19:56:03.457Z,31.40
2018-07-30T19:58:36.741Z,31.40
2018-07-30T20:01:09.598Z,31.40
2018-07-30T20:03:49.238Z,31.30
2018-07-30T20:06:20.869Z,31.30
2018-07-30T20:08:51.398Z,31.30
2018-07-30T20:11:21.294Z,31.30
2018-07-30T20:13:52.798Z,31.30
2018-07-30T20:16:24.330Z,31.30
2018-07-30T20:18:56.462Z,31.20
2018-07-30T20:21:27.390Z,31.20
2018-07-30T20:23:56.614Z,31.20
2018-07-30T20:26:26.133Z,31.10
2018-07-30T20:28:56.705Z,31.10
2018-07-30T20:31:27.556Z,30.90
2018-07-30T20:34:09.920Z,30.90
2018-07-30T20:36:53.200Z,30.90
2018-07-30T20:39:32.549Z,30.90
2018-07-30T20:47:58.352Z,30.80
2018-07-30T20:50:40.520Z,30.80
2018-07-30T20:53:14.811Z,30.80
2018-07-30T21:01:27.337Z,30.70
2018-07-30T21:06:26.320Z,30.30
2018-07-30T21:08:56.864Z,30.10
2018-07-30T21:11:27.770Z,29.90
2018-07-30T21:13:57.983Z,29.70
2018-07-30T21:16:31.534Z,29.50
2018-07-30T21:19:09.954Z,29.40
2018-07-30T21:21:40.687Z,29.30
2018-07-30T21:24:26.881Z,29.10
2018-07-30T21:27:11.498Z,29.10
2018-07-30T21:29:48.175Z,29.10
2018-07-30T21:32:26.501Z,29.00
2018-07-30T21:34:57.290Z,29.00
2018-07-30T21:37:57.422Z,28.90
2018-07-30T21:40:29.620Z,28.80
2018-07-30T21:43:05.583Z,28.70
2018-07-30T21:45:37.299Z,28.60
2018-07-30T21:51:25.325Z,28.40
2018-07-30T21:54:06.250Z,28.40
2018-07-30T21:56:42.693Z,28.40
2018-07-30T21:59:20.809Z,28.30
2018-07-30T22:02:00.961Z,28.20
2018-07-30T22:04:34.142Z,28.20
2018-07-30T22:07:08.837Z,28.10
2018-07-30T22:12:11.191Z,28.00
2018-07-30T22:14:44.323Z,27.90
2018-07-30T22:17:20.318Z,27.80
2018-07-30T22:19:52.258Z,27.70
2018-07-30T22:22:31.185Z,27.70
2018-07-30T22:27:51.265Z,27.70
2018-07-30T22:30:23.021Z,27.60
2018-07-30T22:32:53.417Z,27.50
2018-07-30T22:35:28.161Z,27.40
2018-07-30T22:38:06.839Z,27.40
2018-07-30T22:40:39.179Z,27.30
2018-07-30T22:43:15.446Z,27.20
2018-07-30T22:45:45.098Z,27.20
2018-07-30T22:48:24.183Z,27.10
2018-07-30T22:50:54.306Z,27.10
2018-07-30T22:53:24.864Z,27.00
2018-07-30T22:56:18.815Z,26.90
2018-07-30T22:58:55.252Z,26.90
2018-07-30T23:01:25.025Z,26.80
2018-07-30T23:03:55.962Z,26.70
2018-07-30T23:06:31.277Z,26.70
2018-07-30T23:09:00.728Z,26.70
2018-07-30T23:11:30.216Z,26.60
2018-07-30T23:14:00.135Z,26.60
2018-07-30T23:16:30.570Z,26.60
2018-07-30T23:19:00.552Z,26.50
2018-07-30T23:21:30.383Z,26.50
2018-07-30T23:23:59.743Z,26.50
2018-07-30T23:26:29.098Z,26.50
2018-07-30T23:28:58.665Z,26.40
2018-07-30T23:31:28.122Z,26.30
2018-07-30T23:33:57.341Z,26.30
2018-07-30T23:36:26.656Z,26.30
2018-07-30T23:38:55.729Z,26.20
2018-07-30T23:41:39.343Z,26.20
2018-07-30T23:44:34.393Z,26.20
2018-07-30T23:47:12.244Z,26.10
2018-07-30T23:49:57.840Z,26.00
2018-07-30T23:52:27.289Z,25.90
2018-07-30T23:54:56.376Z,25.80
2018-07-30T23:57:26.303Z,25.80
2018-07-30T23:59:56.580Z,25.80
